createdAt,value
2023-01-15T00:00:52.543Z,18.3
2023-01-15T00:02:02.000Z,18.2
2023-01-15T00:03:12.000Z,18.2
2023-01-15T00:04:22.000Z,18.2
2023-01-15T00:05:33.000Z,18.2
2023-01-15T00:06:43.000Z,18.2
2023-01-15T00:09:03.000Z,18.2
2023-01-15T00:10:13.000Z,18.3
2023-01-15T00:11:23.000Z,18.2
2023-01-15T00:12:33.682Z,18.2
2023-01-15T00:13:42.000Z,18.2
2023-01-15T00:14:52.000Z,18.2
2023-01-15T00:16:03.000Z,18.2
2023-01-15T00:17:13.000Z,18.2
2023-01-15T00:18:23.279Z,18.2
2023-01-15T00:19:33.000Z,18.2
2023-01-15T00:20:43.000Z,18.2
2023-01-15T00:21:52.658Z,18.2
2023-01-15T00:23:01.000Z,18.2
2023-01-15T00:24:10.929Z,18.2
2023-01-15T00:25:20.065Z,18.2
2023-01-15T00:26:30.000Z,18.2
2023-01-15T00:27:40.000Z,18.2
2023-01-15T00:28:49.000Z,18.2
2023-01-15T00:29:59.000Z,18.2
2023-01-15T00:31:09.661Z,18.2
2023-01-15T00:32:19.778Z,18.2
2023-01-15T00:33:29.000Z,18.2
2023-01-15T00:34:40.000Z,18.2
2023-01-15T00:35:50.000Z,18.2
2023-01-15T00:37:00.252Z,18.2
2023-01-15T00:38:10.000Z,18.2
2023-01-15T00:39:20.000Z,18.2
2023-01-15T00:40:30.591Z,18.2
2023-01-15T00:41:40.704Z,18.2
2023-01-15T00:42:50.000Z,18.2
2023-01-15T00:43:59.954Z,18.2
2023-01-15T00:45:10.000Z,18.2
2023-01-15T00:46:20.000Z,18.2
2023-01-15T00:47:30.000Z,18.2
2023-01-15T00:48:39.000Z,18.2
2023-01-15T00:49:48.584Z,18.2
2023-01-15T00:50:58.000Z,18.2
2023-01-15T00:52:07.839Z,18.2
2023-01-15T00:53:16.000Z,18.2
2023-01-15T00:54:27.000Z,18.2
2023-01-15T00:55:37.000Z,18.2
2023-01-15T00:56:47.000Z,18.2
2023-01-15T00:57:57.429Z,18.2
2023-01-15T00:59:07.562Z,18.2
2023-01-15T01:00:17.659Z,18.2
2023-01-15T01:01:27.000Z,18.2
2023-01-15T01:02:37.000Z,18.2
2023-01-15T01:03:48.023Z,18.2
2023-01-15T01:04:58.000Z,18.2
2023-01-15T01:06:08.000Z,18.2
2023-01-15T01:07:18.000Z,18.2
2023-01-15T01:08:27.000Z,18.2
2023-01-15T01:09:37.000Z,18.2
2023-01-15T01:10:47.727Z,18.2
2023-01-15T01:11:57.000Z,18.2
2023-01-15T01:13:07.000Z,18.2
2023-01-15T01:14:18.070Z,18.2
2023-01-15T01:15:28.193Z,18.2
2023-01-15T01:16:37.000Z,18.2
2023-01-15T01:17:46.460Z,18.2
2023-01-15T01:18:56.000Z,18.2
2023-01-15T01:20:06.692Z,18.2
2023-01-15T01:21:16.000Z,18.2
2023-01-15T01:22:25.952Z,18.2
2023-01-15T01:23:35.000Z,18.2
2023-01-15T01:24:45.000Z,18.2
2023-01-15T01:25:55.000Z,18.2
2023-01-15T01:27:05.445Z,18.2
2023-01-15T01:28:15.543Z,18.1
2023-01-15T01:29:25.672Z,18.2
2023-01-15T01:30:35.000Z,18.1
2023-01-15T01:32:56.009Z,18.2
2023-01-15T01:34:06.000Z,18.2
2023-01-15T01:35:16.000Z,18.2
2023-01-15T01:36:26.362Z,18.1
2023-01-15T01:37:36.481Z,18.1
2023-01-15T01:38:45.612Z,18.1
2023-01-15T01:39:55.000Z,18.1
2023-01-15T01:41:05.000Z,18.1
2023-01-15T01:42:15.000Z,18.1
2023-01-15T01:43:26.086Z,18.1
2023-01-15T01:44:36.000Z,18.1
2023-01-15T01:45:46.305Z,18.1
2023-01-15T01:46:56.000Z,18.1
2023-01-15T01:48:05.000Z,18.1
2023-01-15T01:49:14.694Z,18.1
2023-01-15T01:50:23.837Z,18.1
2023-01-15T01:51:32.983Z,18.1
2023-01-15T01:52:43.082Z,18.1
2023-01-15T01:53:53.204Z,18.1
2023-01-15T01:55:03.000Z,18.1
2023-01-15T01:56:13.000Z,18.1
2023-01-15T01:57:23.550Z,18.1
2023-01-15T01:58:33.000Z,18.1
2023-01-15T01:59:43.000Z,18.1
2023-01-15T02:00:53.000Z,18.1
2023-01-15T02:02:04.014Z,18.1
2023-01-15T02:03:14.000Z,18.1
2023-01-15T02:04:24.000Z,18.1
2023-01-15T02:05:34.355Z,18.1
2023-01-15T02:06:43.000Z,18.1
2023-01-15T02:07:53.644Z,18.1
2023-01-15T02:09:03.000Z,18.1
2023-01-15T02:10:13.000Z,18.1
2023-01-15T02:11:23.984Z,18.1
2023-01-15T02:12:34.098Z,18.1
2023-01-15T02:13:44.000Z,18.1
2023-01-15T02:14:53.359Z,18.1
2023-01-15T02:16:02.503Z,18.1
2023-01-15T02:17:12.000Z,18.1
2023-01-15T02:18:22.723Z,18.1
2023-01-15T02:19:32.845Z,18.1
2023-01-15T02:20:41.000Z,18.1
2023-01-15T02:21:51.000Z,18.1
2023-01-15T02:23:01.243Z,18.1
2023-01-15T02:24:11.353Z,18.1
2023-01-15T02:25:21.462Z,18.1
2023-01-15T02:26:31.583Z,18.1
2023-01-15T02:27:41.705Z,18.1
2023-01-15T02:28:51.000Z,18.1
2023-01-15T02:30:01.000Z,18.1
2023-01-15T02:31:12.000Z,18.1
2023-01-15T02:32:22.000Z,18.1
2023-01-15T02:33:32.000Z,18.1
2023-01-15T02:34:42.000Z,18.1
2023-01-15T02:35:52.000Z,18.1
2023-01-15T02:37:01.645Z,18.1
2023-01-15T02:38:11.748Z,18.1
2023-01-15T02:39:21.000Z,18.1
2023-01-15T02:40:32.000Z,18.1
2023-01-15T02:41:42.095Z,18.1
2023-01-15T02:42:52.215Z,18.1
2023-01-15T02:44:02.342Z,18.1
2023-01-15T02:45:11.486Z,18.1
2023-01-15T02:46:20.000Z,18.1
2023-01-15T02:47:30.000Z,18.1
2023-01-15T02:48:40.000Z,18.1
2023-01-15T02:49:50.000Z,18.1
2023-01-15T02:51:01.065Z,18.1
2023-01-15T02:52:11.195Z,18.1
2023-01-15T02:53:21.000Z,18
2023-01-15T02:54:31.000Z,18.1
2023-01-15T02:55:41.000Z,18.1
2023-01-15T02:56:51.644Z,18
2023-01-15T02:58:01.000Z,18
2023-01-15T02:59:11.873Z,18.1
2023-01-15T03:00:22.000Z,18
2023-01-15T03:01:31.000Z,18
2023-01-15T03:02:41.240Z,18
2023-01-15T03:03:51.000Z,18
2023-01-15T03:05:01.000Z,18
2023-01-15T03:06:11.000Z,18
2023-01-15T03:07:21.000Z,18
2023-01-15T03:08:31.000Z,18
2023-01-15T03:09:40.000Z,18
2023-01-15T03:10:50.097Z,18
2023-01-15T03:12:00.211Z,18
2023-01-15T03:13:10.000Z,18
2023-01-15T03:14:20.443Z,18
2023-01-15T03:15:30.000Z,18
2023-01-15T03:16:40.672Z,18
2023-01-15T03:17:50.797Z,18
2023-01-15T03:19:00.910Z,18
2023-01-15T03:20:11.000Z,18
2023-01-15T03:21:21.000Z,18
2023-01-15T03:22:31.257Z,18
2023-01-15T03:23:41.371Z,18
2023-01-15T03:24:51.000Z,18
2023-01-15T03:26:00.000Z,18
2023-01-15T03:27:10.740Z,18
2023-01-15T03:28:20.853Z,18
2023-01-15T03:29:30.000Z,18
2023-01-15T03:30:41.079Z,18
2023-01-15T03:31:51.000Z,18
2023-01-15T03:33:01.310Z,18
2023-01-15T03:34:10.000Z,18
2023-01-15T03:35:19.582Z,18
2023-01-15T03:36:28.000Z,18
2023-01-15T03:38:47.983Z,18
2023-01-15T03:39:58.000Z,18
2023-01-15T03:41:08.217Z,18
2023-01-15T03:42:17.356Z,18
2023-01-15T03:43:26.000Z,18
2023-01-15T03:44:36.000Z,18
2023-01-15T03:45:46.709Z,18
2023-01-15T03:46:56.000Z,18
2023-01-15T03:48:06.000Z,18
2023-01-15T03:49:17.000Z,18
2023-01-15T03:50:27.000Z,18
2023-01-15T03:51:37.000Z,18
2023-01-15T03:52:47.415Z,18
2023-01-15T03:53:57.000Z,18
2023-01-15T03:55:07.000Z,18
2023-01-15T03:57:27.000Z,17.9
2023-01-15T03:58:37.000Z,18
2023-01-15T03:59:47.123Z,18
2023-01-15T04:02:07.000Z,17.9
2023-01-15T04:03:16.496Z,18
2023-01-15T04:04:25.000Z,17.9
2023-01-15T04:05:35.000Z,18
2023-01-15T04:06:45.000Z,17.9
2023-01-15T04:07:55.000Z,17.9
2023-01-15T04:09:06.000Z,17.9
2023-01-15T04:10:16.000Z,17.9
2023-01-15T04:11:26.000Z,17.9
2023-01-15T04:12:36.437Z,17.9
2023-01-15T04:13:46.000Z,17.9
2023-01-15T04:14:56.670Z,17.9
2023-01-15T04:16:05.822Z,17.9
2023-01-15T04:17:14.000Z,17.9
2023-01-15T04:18:25.062Z,17.9
2023-01-15T04:19:35.000Z,17.9
2023-01-15T04:20:45.288Z,17.9
2023-01-15T04:21:55.000Z,17.9
2023-01-15T04:23:04.000Z,17.9
2023-01-15T04:24:14.000Z,17.9
2023-01-15T04:25:24.790Z,17.9
2023-01-15T04:26:34.000Z,17.9
2023-01-15T04:27:45.000Z,17.9
2023-01-15T04:28:55.137Z,17.9
2023-01-15T04:30:05.242Z,17.9
2023-01-15T04:31:15.000Z,17.9
2023-01-15T04:32:25.000Z,17.9
2023-01-15T04:33:35.000Z,17.9
2023-01-15T04:34:45.708Z,17.9
2023-01-15T04:35:55.823Z,17.9
2023-01-15T04:37:05.000Z,17.9
2023-01-15T04:38:15.063Z,17.9
2023-01-15T04:39:25.176Z,17.9
2023-01-15T04:40:34.000Z,17.9
2023-01-15T04:41:43.467Z,17.9
2023-01-15T04:42:52.593Z,17.9
2023-01-15T04:44:01.728Z,17.9
2023-01-15T04:45:11.840Z,17.9
2023-01-15T04:46:21.000Z,17.9
2023-01-15T04:47:32.000Z,17.9
2023-01-15T04:48:42.000Z,17.9
2023-01-15T04:49:52.000Z,17.9
2023-01-15T04:51:02.000Z,17.9
2023-01-15T04:52:12.539Z,17.9
2023-01-15T04:53:22.651Z,17.9
2023-01-15T04:54:32.000Z,17.9
2023-01-15T04:55:42.000Z,17.9
2023-01-15T04:56:53.014Z,17.9
2023-01-15T04:58:03.125Z,17.9
2023-01-15T04:59:12.254Z,17.9
2023-01-15T05:00:22.000Z,17.9
2023-01-15T05:01:32.491Z,17.9
2023-01-15T05:02:42.000Z,17.9
2023-01-15T05:03:52.727Z,17.9
2023-01-15T05:05:02.000Z,17.9
2023-01-15T05:06:12.000Z,17.9
2023-01-15T05:07:22.086Z,17.9
2023-01-15T05:08:31.000Z,17.9
2023-01-15T05:09:41.331Z,17.9
2023-01-15T05:10:51.446Z,17.8
2023-01-15T05:12:01.000Z,17.9
2023-01-15T05:13:11.000Z,17.9
2023-01-15T05:14:21.000Z,17.9
2023-01-15T05:15:31.000Z,17.9
2023-01-15T05:16:42.000Z,17.8
2023-01-15T05:17:52.143Z,17.8
2023-01-15T05:19:02.000Z,17.8
2023-01-15T05:20:12.000Z,17.9
2023-01-15T05:21:22.000Z,17.9
2023-01-15T05:22:32.613Z,17.9
2023-01-15T05:23:41.000Z,17.8
2023-01-15T05:24:51.000Z,17.8
2023-01-15T05:26:01.000Z,17.8
2023-01-15T05:27:12.000Z,17.8
2023-01-15T05:28:22.204Z,17.8
2023-01-15T05:29:32.000Z,17.8
2023-01-15T05:30:42.000Z,17.8
2023-01-15T05:31:51.576Z,17.8
2023-01-15T05:33:00.000Z,17.8
2023-01-15T05:34:09.000Z,17.8
2023-01-15T05:35:19.000Z,17.8
2023-01-15T05:36:29.000Z,17.8
2023-01-15T05:37:39.212Z,17.8
2023-01-15T05:38:48.000Z,17.8
2023-01-15T05:39:57.000Z,17.8
2023-01-15T05:41:06.000Z,17.8
2023-01-15T05:42:15.000Z,17.8
2023-01-15T05:43:25.887Z,17.8
2023-01-15T05:44:35.998Z,17.8
2023-01-15T05:45:46.000Z,17.8
2023-01-15T05:46:56.000Z,17.8
2023-01-15T05:48:06.000Z,17.8
2023-01-15T05:49:16.457Z,17.8
2023-01-15T05:50:26.000Z,17.8
2023-01-15T05:51:36.000Z,17.8
2023-01-15T05:52:46.000Z,17.8
2023-01-15T05:53:56.000Z,17.8
2023-01-15T05:55:07.000Z,17.8
2023-01-15T05:56:17.155Z,17.8
2023-01-15T05:57:26.283Z,17.8
2023-01-15T05:58:36.399Z,17.8
2023-01-15T05:59:46.000Z,17.8
2023-01-15T06:00:56.000Z,17.8
2023-01-15T06:02:06.000Z,17.8
2023-01-15T06:03:16.868Z,17.8
2023-01-15T06:04:26.996Z,17.8
2023-01-15T06:05:36.000Z,17.8
2023-01-15T06:06:45.000Z,17.8
2023-01-15T06:07:55.000Z,17.8
2023-01-15T06:09:05.485Z,17.8
2023-01-15T06:10:15.000Z,17.8
2023-01-15T06:11:25.000Z,17.8
2023-01-15T06:12:35.000Z,17.8
2023-01-15T06:13:45.949Z,17.8
2023-01-15T06:14:56.065Z,17.8
2023-01-15T06:16:06.000Z,17.8
2023-01-15T06:17:16.000Z,17.8
2023-01-15T06:18:26.000Z,17.8
2023-01-15T06:19:36.000Z,17.8
2023-01-15T06:20:46.661Z,17.8
2023-01-15T06:21:55.777Z,17.8
2023-01-15T06:23:05.892Z,17.8
2023-01-15T06:24:16.000Z,17.8
2023-01-15T06:26:36.247Z,17.8
2023-01-15T06:27:46.364Z,17.8
2023-01-15T06:28:56.000Z,17.8
2023-01-15T06:30:06.000Z,17.8
2023-01-15T06:31:15.000Z,17.8
2023-01-15T06:32:24.000Z,17.8
2023-01-15T06:33:34.000Z,17.8
2023-01-15T06:34:43.138Z,17.8
2023-01-15T06:35:53.000Z,17.7
2023-01-15T06:37:03.000Z,17.7
2023-01-15T06:38:13.482Z,17.8
2023-01-15T06:39:23.600Z,17.7
2023-01-15T06:40:33.000Z,17.7
2023-01-15T06:41:43.000Z,17.7
2023-01-15T06:42:53.000Z,17.7
2023-01-15T06:44:04.000Z,17.7
2023-01-15T06:45:14.000Z,17.7
2023-01-15T06:46:24.000Z,17.7
2023-01-15T06:47:34.000Z,17.7
2023-01-15T06:48:44.000Z,17.7
2023-01-15T06:49:53.657Z,17.7
2023-01-15T06:51:03.776Z,17.7
2023-01-15T06:52:13.000Z,17.7
2023-01-15T06:53:24.000Z,17.7
2023-01-15T06:54:34.000Z,17.7
2023-01-15T06:55:44.252Z,17.7
2023-01-15T06:56:54.000Z,17.7
2023-01-15T06:58:03.000Z,17.7
2023-01-15T06:59:12.632Z,17.7
2023-01-15T07:00:21.000Z,17.7
2023-01-15T07:01:30.000Z,17.7
2023-01-15T07:02:41.000Z,17.7
2023-01-15T07:03:51.134Z,17.7
2023-01-15T07:05:01.000Z,17.7
2023-01-15T07:06:11.000Z,17.7
2023-01-15T07:07:21.000Z,17.7
2023-01-15T07:08:31.000Z,17.7
2023-01-15T07:09:41.000Z,17.7
2023-01-15T07:10:51.000Z,17.7
2023-01-15T07:12:02.000Z,17.7
2023-01-15T07:13:12.146Z,17.7
2023-01-15T07:14:22.000Z,17.7
2023-01-15T07:15:32.000Z,17.7
2023-01-15T07:16:41.000Z,17.7
2023-01-15T07:17:51.000Z,17.7
2023-01-15T07:19:01.000Z,17.7
2023-01-15T07:20:11.000Z,17.7
2023-01-15T07:21:21.961Z,17.7
2023-01-15T07:22:32.000Z,17.7
2023-01-15T07:23:42.000Z,17.7
2023-01-15T07:24:51.000Z,17.7
2023-01-15T07:26:00.000Z,17.7
2023-01-15T07:27:10.000Z,17.7
2023-01-15T07:28:19.726Z,17.7
2023-01-15T07:29:28.000Z,17.7
2023-01-15T07:30:38.980Z,17.7
2023-01-15T07:31:49.000Z,17.7
2023-01-15T07:32:59.000Z,17.7
2023-01-15T07:34:09.000Z,17.7
2023-01-15T07:35:19.433Z,17.7
2023-01-15T07:36:29.552Z,17.7
2023-01-15T07:37:39.000Z,17.7
2023-01-15T07:38:49.000Z,17.7
2023-01-15T07:39:59.000Z,17.7
2023-01-15T07:41:10.000Z,17.7
2023-01-15T07:42:20.000Z,17.7
2023-01-15T07:43:30.000Z,17.7
2023-01-15T07:44:39.000Z,17.6
2023-01-15T07:45:49.000Z,17.7
2023-01-15T07:46:59.000Z,17.7
2023-01-15T07:48:09.000Z,17.7
2023-01-15T07:49:19.848Z,17.6
2023-01-15T07:50:29.000Z,17.7
2023-01-15T07:51:40.071Z,17.7
2023-01-15T07:52:49.211Z,17.6
2023-01-15T07:53:58.346Z,17.6
2023-01-15T07:55:08.000Z,17.6
2023-01-15T07:56:18.000Z,17.7
2023-01-15T07:57:28.000Z,17.6
2023-01-15T07:58:37.000Z,17.7
2023-01-15T07:59:46.000Z,17.7
2023-01-15T08:00:57.000Z,17.6
2023-01-15T08:02:07.000Z,17.7
2023-01-15T08:03:17.000Z,17.6
2023-01-15T08:04:27.429Z,17.7
2023-01-15T08:05:37.000Z,17.6
2023-01-15T08:06:47.666Z,17.7
2023-01-15T08:07:57.000Z,17.7
2023-01-15T08:09:07.000Z,17.6
2023-01-15T08:10:18.000Z,17.7
2023-01-15T08:11:28.000Z,17.7
2023-01-15T08:12:38.000Z,17.6
2023-01-15T08:13:48.362Z,17.7
2023-01-15T08:14:57.000Z,17.6
2023-01-15T08:16:07.606Z,17.6
2023-01-15T08:17:16.741Z,17.7
2023-01-15T08:18:26.000Z,17.6
2023-01-15T08:19:36.000Z,17.6
2023-01-15T08:20:47.000Z,17.7
2023-01-15T08:21:57.204Z,17.7
2023-01-15T08:23:06.000Z,17.7
2023-01-15T08:24:15.000Z,17.7
2023-01-15T08:25:25.000Z,17.7
2023-01-15T08:26:34.000Z,17.7
2023-01-15T08:27:43.871Z,17.7
2023-01-15T08:28:54.000Z,17.7
2023-01-15T08:30:04.000Z,17.7
2023-01-15T08:31:14.000Z,17.7
2023-01-15T08:32:24.332Z,17.7
2023-01-15T08:33:34.000Z,17.7
2023-01-15T08:34:44.000Z,17.6
2023-01-15T08:35:54.000Z,17.7
2023-01-15T08:37:04.000Z,17.7
2023-01-15T08:38:14.000Z,17.7
2023-01-15T08:39:25.000Z,17.7
2023-01-15T08:40:35.157Z,17.7
2023-01-15T08:41:45.000Z,17.7
2023-01-15T08:42:54.393Z,17.7
2023-01-15T08:44:04.511Z,17.7
2023-01-15T08:45:14.000Z,17.7
2023-01-15T08:46:24.000Z,17.7
2023-01-15T08:47:34.000Z,17.7
2023-01-15T08:48:44.974Z,17.7
2023-01-15T08:49:55.000Z,17.7
2023-01-15T08:51:04.000Z,17.7
2023-01-15T08:52:13.000Z,17.7
2023-01-15T08:53:23.478Z,17.7
2023-01-15T08:54:33.000Z,17.7
2023-01-15T08:55:43.000Z,17.7
2023-01-15T08:56:52.849Z,17.7
2023-01-15T08:58:01.988Z,17.7
2023-01-15T08:59:12.000Z,17.7
2023-01-15T09:00:22.000Z,17.8
2023-01-15T09:01:32.000Z,17.8
2023-01-15T09:02:42.000Z,17.8
2023-01-15T09:03:52.000Z,17.8
2023-01-15T09:05:02.000Z,17.8
2023-01-15T09:06:12.000Z,17.8
2023-01-15T09:07:22.913Z,17.8
2023-01-15T09:08:33.000Z,17.8
2023-01-15T09:09:43.146Z,17.8
2023-01-15T09:10:53.000Z,17.8
2023-01-15T09:12:03.373Z,17.8
2023-01-15T09:13:12.000Z,17.8
2023-01-15T09:14:22.000Z,17.9
2023-01-15T09:15:32.000Z,17.9
2023-01-15T09:16:42.858Z,17.9
2023-01-15T09:17:52.000Z,17.9
2023-01-15T09:19:03.000Z,17.9
2023-01-15T09:20:13.201Z,17.9
2023-01-15T09:21:23.000Z,17.9
2023-01-15T09:22:32.000Z,17.9
2023-01-15T09:23:41.000Z,18
2023-01-15T09:24:51.000Z,18
2023-01-15T09:26:01.000Z,18
2023-01-15T09:27:11.000Z,18
2023-01-15T09:28:22.000Z,18
2023-01-15T09:29:32.000Z,18
2023-01-15T09:30:42.000Z,18
2023-01-15T09:31:52.000Z,18.1
2023-01-15T09:33:02.000Z,18.1
2023-01-15T09:34:12.635Z,18.1
2023-01-15T09:35:22.749Z,18.1
2023-01-15T09:36:32.000Z,18.1
2023-01-15T09:37:42.000Z,18.1
2023-01-15T09:38:52.113Z,18.1
2023-01-15T09:40:02.231Z,18.1
2023-01-15T09:41:12.349Z,18.1
2023-01-15T09:42:22.459Z,18.1
2023-01-15T09:43:32.579Z,18.1
2023-01-15T09:44:42.693Z,18.1
2023-01-15T09:45:52.000Z,18.1
2023-01-15T09:47:01.000Z,18.1
2023-01-15T09:48:11.000Z,18.1
2023-01-15T09:49:20.000Z,18.1
2023-01-15T09:50:29.000Z,18.1
2023-01-15T09:51:39.000Z,18.1
2023-01-15T09:52:49.590Z,18.2
2023-01-15T09:53:58.000Z,18.2
2023-01-15T09:55:07.862Z,18.2
2023-01-15T09:56:17.000Z,18.3
2023-01-15T09:57:28.099Z,18.3
2023-01-15T09:58:38.000Z,18.3
2023-01-15T09:59:48.326Z,18.3
2023-01-15T10:00:58.000Z,18.3
2023-01-15T10:02:08.000Z,18.3
2023-01-15T10:03:18.000Z,18.4
2023-01-15T10:04:28.000Z,18.4
2023-01-15T10:05:38.904Z,18.4
2023-01-15T10:06:49.000Z,18.4
2023-01-15T10:07:59.000Z,18.4
2023-01-15T10:09:09.000Z,18.4
2023-01-15T10:10:18.000Z,18.4
2023-01-15T10:11:28.508Z,18.4
2023-01-15T10:12:38.000Z,18.4
2023-01-15T10:13:48.738Z,18.4
2023-01-15T10:14:58.000Z,18.4
2023-01-15T10:16:08.000Z,18.5
2023-01-15T10:17:19.000Z,18.5
2023-01-15T10:18:28.227Z,18.5
2023-01-15T10:19:37.355Z,18.4
2023-01-15T10:20:47.000Z,18.4
2023-01-15T10:21:57.597Z,18.4
2023-01-15T10:23:07.000Z,18.4
2023-01-15T10:24:17.000Z,18.4
2023-01-15T10:25:27.000Z,18.4
2023-01-15T10:26:38.000Z,18.4
2023-01-15T10:27:48.165Z,18.4
2023-01-15T10:28:58.000Z,18.4
2023-01-15T10:30:08.000Z,18.4
2023-01-15T10:31:18.000Z,18.5
2023-01-15T10:32:28.000Z,18.5
2023-01-15T10:33:38.000Z,18.5
2023-01-15T10:34:47.000Z,18.6
2023-01-15T10:35:58.000Z,18.6
2023-01-15T10:37:08.120Z,18.6
2023-01-15T10:38:18.233Z,18.6
2023-01-15T10:39:28.000Z,18.5
2023-01-15T10:40:38.000Z,18.6
2023-01-15T10:41:48.573Z,18.6
2023-01-15T10:42:57.000Z,18.6
2023-01-15T10:44:06.000Z,18.6
2023-01-15T10:45:16.000Z,18.6
2023-01-15T10:46:25.133Z,18.7
2023-01-15T10:47:35.000Z,18.7
2023-01-15T10:48:44.000Z,18.8
2023-01-15T10:49:53.000Z,18.8
2023-01-15T10:51:03.000Z,18.8
2023-01-15T10:52:12.769Z,18.8
2023-01-15T10:53:21.000Z,18.8
2023-01-15T10:54:32.021Z,18.8
2023-01-15T10:55:42.134Z,18.8
2023-01-15T10:56:52.249Z,18.9
2023-01-15T10:58:02.368Z,19
2023-01-15T10:59:12.480Z,18.9
2023-01-15T11:00:22.000Z,18.9
2023-01-15T11:01:32.000Z,18.9
2023-01-15T11:02:42.000Z,18.9
2023-01-15T11:03:52.000Z,19
2023-01-15T11:05:03.000Z,19.1
2023-01-15T11:06:13.000Z,19
2023-01-15T11:07:23.298Z,19
2023-01-15T11:08:32.000Z,19
2023-01-15T11:09:42.000Z,18.9
2023-01-15T11:10:52.000Z,18.9
2023-01-15T11:12:02.776Z,18.9
2023-01-15T11:13:12.000Z,18.9
2023-01-15T11:14:23.005Z,18.9
2023-01-15T11:15:33.131Z,18.9
2023-01-15T11:16:42.262Z,18.8
2023-01-15T11:17:51.000Z,18.8
2023-01-15T11:19:00.000Z,18.8
2023-01-15T11:20:09.686Z,18.8
2023-01-15T11:21:18.000Z,18.8
2023-01-15T11:22:27.945Z,18.8
2023-01-15T11:23:38.061Z,18.8
2023-01-15T11:24:48.178Z,18.8
2023-01-15T11:25:58.000Z,18.7
2023-01-15T11:27:08.000Z,18.7
2023-01-15T11:28:18.000Z,18.7
2023-01-15T11:29:28.000Z,18.7
2023-01-15T11:30:38.000Z,18.7
2023-01-15T11:31:48.000Z,18.7
2023-01-15T11:32:59.000Z,18.7
2023-01-15T11:34:09.134Z,18.7
2023-01-15T11:35:19.000Z,18.7
2023-01-15T11:36:29.000Z,18.7
2023-01-15T11:37:38.000Z,18.6
2023-01-15T11:38:48.000Z,18.7
2023-01-15T11:39:58.700Z,18.6
2023-01-15T11:41:08.000Z,18.6
2023-01-15T11:42:18.000Z,18.6
2023-01-15T11:43:29.000Z,18.6
2023-01-15T11:45:49.000Z,18.6
2023-01-15T11:46:58.000Z,18.6
2023-01-15T11:48:07.557Z,18.6
2023-01-15T11:49:17.000Z,18.6
2023-01-15T11:50:27.000Z,18.6
2023-01-15T11:51:37.901Z,18.6
2023-01-15T11:52:47.000Z,18.6
2023-01-15T11:53:56.180Z,18.6
2023-01-15T11:55:06.000Z,18.6
2023-01-15T11:56:16.412Z,18.6
2023-01-15T11:57:26.000Z,18.6
2023-01-15T11:58:36.000Z,18.6
2023-01-15T11:59:46.751Z,18.6
2023-01-15T12:00:56.000Z,18.6
2023-01-15T12:02:07.000Z,18.6
2023-01-15T12:03:17.000Z,18.6
2023-01-15T12:04:27.221Z,18.6
2023-01-15T12:05:37.332Z,18.6
2023-01-15T12:06:47.000Z,18.6
2023-01-15T12:07:57.000Z,18.6
2023-01-15T12:09:06.000Z,18.5
2023-01-15T12:10:16.818Z,18.5
2023-01-15T12:11:25.000Z,18.5
2023-01-15T12:12:36.065Z,18.5
2023-01-15T12:13:46.000Z,18.5
2023-01-15T12:16:06.000Z,18.5
2023-01-15T12:17:16.528Z,18.5
2023-01-15T12:18:25.672Z,18.5
2023-01-15T12:19:34.000Z,18.5
2023-01-15T12:20:44.922Z,18.5
2023-01-15T12:21:55.000Z,18.5
2023-01-15T12:23:05.000Z,18.4
2023-01-15T12:24:15.000Z,18.4
2023-01-15T12:25:25.382Z,18.4
2023-01-15T12:26:35.000Z,18.4
2023-01-15T12:27:45.000Z,18.4
2023-01-15T12:28:55.732Z,18.4
2023-01-15T12:30:05.000Z,18.4
2023-01-15T12:31:15.972Z,18.4
2023-01-15T12:32:26.000Z,18.6
2023-01-15T12:33:36.000Z,18.7
2023-01-15T12:34:45.328Z,18.9
2023-01-15T12:35:55.000Z,18.8
2023-01-15T12:37:05.000Z,18.7
2023-01-15T12:38:15.677Z,18.6
2023-01-15T12:39:25.000Z,18.6
2023-01-15T12:40:35.000Z,18.6
2023-01-15T12:41:46.000Z,18.5
2023-01-15T12:42:55.000Z,18.5
2023-01-15T12:44:04.295Z,18.5
2023-01-15T12:45:14.000Z,18.5
2023-01-15T12:46:24.000Z,18.5
2023-01-15T12:47:34.000Z,18.4
2023-01-15T12:48:44.000Z,18.4
2023-01-15T12:49:54.000Z,18.4
2023-01-15T12:51:05.000Z,18.4
2023-01-15T12:52:15.000Z,18.4
2023-01-15T12:53:25.228Z,18.4
2023-01-15T12:54:35.000Z,18.4
2023-01-15T12:55:45.000Z,18.4
2023-01-15T12:56:55.000Z,18.4
2023-01-15T12:58:05.000Z,18.4
2023-01-15T12:59:14.000Z,18.4
2023-01-15T13:00:24.000Z,18.4
2023-01-15T13:01:35.046Z,18.4
2023-01-15T13:02:45.166Z,18.4
2023-01-15T13:03:55.000Z,18.4
2023-01-15T13:05:05.000Z,18.4
2023-01-15T13:06:15.000Z,18.4
2023-01-15T13:07:24.000Z,18.4
2023-01-15T13:08:33.000Z,18.4
2023-01-15T13:09:42.926Z,18.4
2023-01-15T13:10:52.000Z,18.4
2023-01-15T13:12:01.000Z,18.4
2023-01-15T13:13:10.000Z,18.4
2023-01-15T13:14:20.000Z,18.3
2023-01-15T13:15:30.000Z,18.3
2023-01-15T13:16:40.000Z,18.3
2023-01-15T13:17:50.806Z,18.3
2023-01-15T13:19:00.000Z,18.3
2023-01-15T13:20:11.000Z,18.3
2023-01-15T13:21:21.000Z,18.3
2023-01-15T13:22:31.268Z,18.2
2023-01-15T13:23:41.000Z,18.2
2023-01-15T13:24:51.000Z,18.2
2023-01-15T13:26:01.000Z,18.2
2023-01-15T13:27:11.000Z,18.2
2023-01-15T13:28:20.000Z,18.2
2023-01-15T13:29:30.000Z,18.2
2023-01-15T13:30:41.093Z,18.2
2023-01-15T13:31:51.205Z,18.2
2023-01-15T13:33:01.321Z,18.2
2023-01-15T13:34:11.000Z,18.1
2023-01-15T13:35:21.551Z,18.2
2023-01-15T13:36:30.690Z,18.1
2023-01-15T13:37:39.000Z,18.1
2023-01-15T13:38:49.000Z,18.1
2023-01-15T13:40:00.000Z,18.1
2023-01-15T13:41:10.000Z,18.1
2023-01-15T13:42:20.000Z,18.1
2023-01-15T13:43:30.000Z,18.1
2023-01-15T13:44:40.000Z,18.1
2023-01-15T13:45:50.000Z,18.1
2023-01-15T13:47:00.000Z,18.1
2023-01-15T13:48:10.000Z,18.1
2023-01-15T13:49:20.000Z,18.1
2023-01-15T13:50:31.000Z,18.1
2023-01-15T13:51:41.216Z,18
2023-01-15T13:52:50.000Z,18
2023-01-15T13:54:00.000Z,18
2023-01-15T13:55:10.000Z,18
2023-01-15T13:56:20.000Z,18
2023-01-15T13:57:30.815Z,18
2023-01-15T13:58:40.000Z,18
2023-01-15T13:59:51.000Z,18
2023-01-15T14:01:00.000Z,18
2023-01-15T14:02:09.000Z,18
2023-01-15T14:03:18.455Z,18
2023-01-15T14:04:27.588Z,18
2023-01-15T14:05:37.000Z,17.9
2023-01-15T14:06:47.823Z,17.9
2023-01-15T14:07:57.000Z,17.9
2023-01-15T14:09:08.051Z,17.9
2023-01-15T14:10:18.000Z,17.9
2023-01-15T14:11:28.000Z,17.9
2023-01-15T14:12:38.400Z,17.9
2023-01-15T14:13:48.000Z,17.9
2023-01-15T14:14:58.000Z,17.9
2023-01-15T14:16:08.000Z,17.9
2023-01-15T14:17:18.866Z,17.9
2023-01-15T14:18:28.976Z,17.9
2023-01-15T14:19:38.000Z,17.9
2023-01-15T14:20:48.235Z,17.9
2023-01-15T14:21:58.000Z,17.9
2023-01-15T14:23:08.000Z,17.9
2023-01-15T14:24:18.574Z,17.9
2023-01-15T14:25:28.000Z,17.9
2023-01-15T14:26:38.000Z,17.9
2023-01-15T14:27:47.945Z,17.9
2023-01-15T14:28:57.082Z,17.9
2023-01-15T14:30:06.000Z,17.9
2023-01-15T14:31:15.000Z,17.8
2023-01-15T14:32:25.000Z,17.8
2023-01-15T14:33:35.583Z,17.8
2023-01-15T14:34:45.000Z,17.8
2023-01-15T14:35:55.000Z,17.8
2023-01-15T14:37:05.000Z,17.8
2023-01-15T14:38:16.000Z,17.8
2023-01-15T14:39:26.000Z,17.8
2023-01-15T14:40:36.000Z,17.8
2023-01-15T14:41:46.393Z,17.8
2023-01-15T14:42:56.000Z,17.8
2023-01-15T14:44:06.624Z,17.8
2023-01-15T14:45:16.000Z,17.8
2023-01-15T14:46:25.873Z,17.8
2023-01-15T14:47:36.000Z,17.8
2023-01-15T14:48:46.000Z,17.8
2023-01-15T14:49:56.000Z,17.8
2023-01-15T14:51:06.000Z,17.8
2023-01-15T14:52:16.452Z,17.8
2023-01-15T14:53:26.000Z,17.8
2023-01-15T14:54:35.000Z,17.8
2023-01-15T14:55:44.841Z,17.8
2023-01-15T14:56:54.962Z,17.8
2023-01-15T14:58:05.000Z,17.8
2023-01-15T14:59:15.192Z,17.8
2023-01-15T15:00:25.000Z,17.8
2023-01-15T15:01:35.423Z,17.8
2023-01-15T15:02:45.540Z,17.8
2023-01-15T15:03:55.656Z,17.8
2023-01-15T15:05:05.770Z,17.8
2023-01-15T15:06:15.901Z,17.8
2023-01-15T15:07:26.000Z,17.8
2023-01-15T15:08:36.118Z,17.8
2023-01-15T15:09:46.231Z,17.8
2023-01-15T15:10:55.376Z,17.8
2023-01-15T15:12:05.000Z,17.8
2023-01-15T15:13:15.000Z,17.8
2023-01-15T15:14:25.000Z,17.8
2023-01-15T15:15:35.000Z,17.8
2023-01-15T15:16:45.000Z,17.8
2023-01-15T15:17:56.061Z,17.8
2023-01-15T15:19:05.000Z,17.8
2023-01-15T15:20:14.332Z,17.8
2023-01-15T15:21:24.449Z,17.8
2023-01-15T15:22:34.567Z,17.8
2023-01-15T15:23:44.682Z,17.8
2023-01-15T15:24:54.000Z,17.8
2023-01-15T15:26:04.000Z,17.8
2023-01-15T15:27:15.000Z,17.8
2023-01-15T15:28:25.000Z,17.8
2023-01-15T15:29:35.000Z,17.8
2023-01-15T15:30:45.000Z,17.8
2023-01-15T15:31:55.000Z,17.8
2023-01-15T15:33:05.622Z,17.8
2023-01-15T15:34:15.000Z,17.7
2023-01-15T15:35:24.000Z,17.7
2023-01-15T15:36:34.972Z,17.7
2023-01-15T15:37:45.090Z,17.7
2023-01-15T15:38:55.000Z,17.7
2023-01-15T15:40:05.000Z,17.7
2023-01-15T15:41:15.000Z,17.7
2023-01-15T15:42:25.000Z,17.7
2023-01-15T15:43:34.000Z,17.7
2023-01-15T15:44:43.825Z,17.7
2023-01-15T15:45:52.000Z,17.7